createdAt,value
2022-11-21T00:00:54.428Z,3.90
2022-11-21T00:03:21.645Z,3.90
2022-11-21T00:05:49.509Z,3.90
2022-11-21T00:08:18.626Z,4.00
2022-11-21T00:10:46.145Z,4.00
2022-11-21T00:13:18.300Z,4.00
2022-11-21T00:15:45.588Z,4.00
2022-11-21T00:18:12.891Z,4.00
2022-11-21T00:20:41.269Z,4.10
2022-11-21T00:23:08.543Z,4.10
2022-11-21T00:25:35.895Z,4.20
2022-11-21T00:28:03.040Z,4.20
2022-11-21T00:30:29.791Z,4.10
2022-11-21T00:32:58.598Z,4.20
2022-11-21T00:35:25.312Z,4.20
2022-11-21T00:37:52.015Z,4.20
2022-11-21T00:40:19.043Z,4.10
2022-11-21T00:42:46.028Z,4.10
2022-11-21T00:45:12.879Z,4.10
2022-11-21T00:47:39.632Z,4.20
2022-11-21T00:50:06.621Z,4.20
2022-11-21T00:52:33.384Z,4.30
2022-11-21T00:55:00.202Z,4.30
2022-11-21T00:57:26.966Z,4.10
2022-11-21T00:59:53.836Z,4.10
2022-11-21T01:02:20.582Z,4.10
2022-11-21T01:04:47.312Z,4.20
2022-11-21T01:07:14.764Z,4.20
2022-11-21T01:09:41.533Z,4.20
2022-11-21T01:12:08.250Z,4.30
2022-11-21T01:14:35.003Z,4.30
2022-11-21T01:17:01.693Z,4.20
2022-11-21T01:19:28.509Z,4.10
2022-11-21T01:21:55.289Z,4.00
2022-11-21T01:24:22.054Z,4.10
2022-11-21T01:26:50.937Z,4.20
2022-11-21T01:29:17.863Z,4.20
2022-11-21T01:31:44.646Z,4.20
2022-11-21T01:34:11.381Z,4.20
2022-11-21T01:36:38.095Z,4.20
2022-11-21T01:39:06.747Z,4.10
2022-11-21T01:41:36.244Z,4.00
2022-11-21T01:44:19.108Z,4.00
2022-11-21T01:46:46.816Z,3.90
2022-11-21T01:49:21.904Z,3.90
2022-11-21T01:52:08.991Z,4.00
2022-11-21T01:54:47.306Z,4.00
2022-11-21T01:57:29.675Z,4.00
2022-11-21T02:00:36.924Z,3.90
2022-11-21T02:03:10.272Z,3.90
2022-11-21T02:05:38.544Z,3.90
2022-11-21T02:08:14.898Z,3.80
2022-11-21T02:11:06.390Z,3.60
2022-11-21T02:13:33.073Z,3.60
2022-11-21T02:16:00.163Z,3.50
2022-11-21T02:18:26.863Z,3.30
2022-11-21T02:21:05.520Z,3.00
2022-11-21T02:23:44.987Z,2.90
2022-11-21T02:26:13.071Z,3.00
2022-11-21T02:28:39.936Z,3.00
2022-11-21T02:31:06.730Z,3.20
2022-11-21T02:33:33.465Z,3.20
2022-11-21T02:36:01.928Z,3.20
2022-11-21T02:38:35.012Z,3.30
2022-11-21T02:41:12.906Z,3.20
2022-11-21T02:43:47.845Z,3.20
2022-11-21T02:46:14.784Z,3.20
2022-11-21T02:48:41.662Z,3.20
2022-11-21T02:51:08.977Z,3.20
2022-11-21T02:53:35.676Z,3.30
2022-11-21T02:56:02.386Z,3.50
2022-11-21T02:58:29.312Z,3.60
2022-11-21T03:00:56.259Z,3.50
2022-11-21T03:03:23.130Z,3.60
2022-11-21T03:05:49.946Z,3.60
2022-11-21T03:08:18.934Z,3.70
2022-11-21T03:10:45.687Z,3.80
2022-11-21T03:13:12.401Z,3.80
2022-11-21T03:15:39.119Z,3.90
2022-11-21T03:18:06.294Z,4.00
2022-11-21T03:20:34.761Z,4.10
2022-11-21T03:23:02.254Z,4.10
2022-11-21T03:25:29.310Z,4.10
2022-11-21T03:27:56.107Z,4.10
2022-11-21T03:30:24.496Z,4.20
2022-11-21T03:32:51.675Z,4.20
2022-11-21T03:35:18.374Z,4.20
2022-11-21T03:37:45.078Z,4.20
2022-11-21T03:40:12.347Z,4.20
2022-11-21T03:42:39.033Z,4.20
2022-11-21T03:45:06.326Z,4.20
2022-11-21T03:47:33.030Z,4.10
2022-11-21T03:49:59.801Z,4.10
2022-11-21T03:52:26.623Z,4.20
2022-11-21T03:54:53.331Z,4.20
2022-11-21T03:57:21.083Z,4.20
2022-11-21T03:59:47.779Z,4.20
2022-11-21T04:02:14.499Z,4.20
2022-11-21T04:04:41.248Z,4.20
2022-11-21T04:07:08.046Z,4.10
2022-11-21T04:09:34.769Z,4.00
2022-11-21T04:12:06.430Z,4.00
2022-11-21T04:14:34.380Z,4.00
2022-11-21T04:17:01.130Z,4.00
2022-11-21T04:19:27.894Z,4.00
2022-11-21T04:21:54.642Z,4.00
2022-11-21T04:24:21.343Z,4.10
2022-11-21T04:26:48.014Z,4.10
2022-11-21T04:29:14.817Z,4.10
2022-11-21T04:31:41.490Z,4.20
2022-11-21T04:34:08.258Z,4.20
2022-11-21T04:36:35.006Z,4.30
2022-11-21T04:39:01.834Z,4.30
2022-11-21T04:41:28.532Z,4.30
2022-11-21T04:43:55.304Z,4.30
2022-11-21T04:46:22.008Z,4.30
2022-11-21T04:48:48.802Z,4.40
2022-11-21T04:51:15.498Z,4.40
2022-11-21T04:53:43.288Z,4.40
2022-11-21T04:56:10.669Z,4.40
2022-11-21T04:58:37.383Z,4.40
2022-11-21T05:01:08.936Z,4.40
2022-11-21T05:03:36.706Z,4.40
2022-11-21T05:06:03.883Z,4.40
2022-11-21T05:08:30.611Z,4.50
2022-11-21T05:11:15.892Z,4.50
2022-11-21T05:13:42.701Z,4.50
2022-11-21T05:16:09.583Z,4.50
2022-11-21T05:18:36.273Z,4.50
2022-11-21T05:21:03.472Z,4.50
2022-11-21T05:23:30.336Z,4.50
2022-11-21T05:25:57.085Z,4.50
2022-11-21T05:28:23.883Z,4.50
2022-11-21T05:30:50.652Z,4.50
2022-11-21T05:33:17.391Z,4.50
2022-11-21T05:35:44.296Z,4.40
2022-11-21T05:38:11.328Z,4.50
2022-11-21T05:40:38.201Z,4.40
2022-11-21T05:43:23.450Z,4.40
2022-11-21T05:45:50.990Z,4.30
2022-11-21T05:48:18.358Z,4.30
2022-11-21T05:50:48.546Z,4.30
2022-11-21T05:53:16.059Z,4.20
2022-11-21T05:55:42.904Z,4.20
2022-11-21T05:58:10.956Z,4.20
2022-11-21T06:00:38.390Z,4.20
2022-11-21T06:03:24.908Z,4.20
2022-11-21T06:05:51.735Z,4.10
2022-11-21T06:08:18.762Z,4.10
2022-11-21T06:10:45.562Z,4.30
2022-11-21T06:13:24.329Z,4.30
2022-11-21T06:15:52.254Z,4.40
2022-11-21T06:18:21.572Z,4.40
2022-11-21T06:20:48.539Z,4.40
2022-11-21T06:23:15.586Z,4.40
2022-11-21T06:25:43.410Z,4.40
2022-11-21T06:28:11.323Z,4.40
2022-11-21T06:30:38.285Z,4.40
2022-11-21T06:33:06.885Z,4.40
2022-11-21T06:35:37.924Z,4.40
2022-11-21T06:38:04.848Z,4.40
2022-11-21T06:40:31.701Z,4.40
2022-11-21T06:42:58.420Z,4.40
2022-11-21T06:45:25.143Z,4.40
2022-11-21T06:47:51.914Z,4.50
2022-11-21T06:50:18.682Z,4.40
2022-11-21T06:52:45.463Z,4.40
2022-11-21T06:55:12.394Z,4.30
2022-11-21T06:57:39.109Z,4.30
2022-11-21T07:00:06.863Z,4.30
2022-11-21T07:02:33.653Z,4.40
2022-11-21T07:05:00.376Z,4.40
2022-11-21T07:07:29.368Z,4.20
2022-11-21T07:09:56.149Z,4.30
2022-11-21T07:12:41.508Z,4.30
2022-11-21T07:15:08.887Z,4.30
2022-11-21T07:17:35.603Z,4.20
2022-11-21T07:20:02.325Z,4.30
2022-11-21T07:22:29.134Z,4.20
2022-11-21T07:24:56.557Z,4.20
2022-11-21T07:27:23.261Z,4.20
2022-11-21T07:29:52.876Z,4.10
2022-11-21T07:32:21.747Z,4.10
2022-11-21T07:34:48.438Z,4.10
2022-11-21T07:37:15.209Z,4.10
2022-11-21T07:39:41.938Z,4.00
2022-11-21T07:42:08.663Z,4.00
2022-11-21T07:44:36.538Z,4.10
2022-11-21T07:47:03.236Z,4.00
2022-11-21T07:49:30.270Z,4.00
2022-11-21T07:51:58.032Z,4.00
2022-11-21T07:54:24.809Z,4.00
2022-11-21T07:56:51.486Z,4.10
2022-11-21T07:59:19.259Z,4.10
2022-11-21T08:01:46.516Z,4.30
2022-11-21T08:04:13.264Z,4.30
2022-11-21T08:06:39.978Z,4.40
2022-11-21T08:09:06.676Z,4.50
2022-11-21T08:11:36.647Z,4.50
2022-11-21T08:14:03.954Z,4.70
2022-11-21T08:16:32.869Z,4.80
2022-11-21T08:19:00.027Z,5.00
2022-11-21T08:21:27.167Z,5.20
2022-11-21T08:23:54.616Z,5.50
2022-11-21T08:26:21.453Z,5.60
2022-11-21T08:28:48.173Z,5.80
2022-11-21T08:31:14.885Z,5.90
2022-11-21T08:33:41.562Z,5.90
2022-11-21T08:36:08.491Z,5.90
2022-11-21T08:38:35.246Z,6.00
2022-11-21T08:41:20.731Z,6.00
2022-11-21T08:43:47.427Z,6.10
2022-11-21T08:46:14.226Z,6.10
2022-11-21T08:48:40.947Z,6.10
2022-11-21T08:51:07.658Z,6.10
2022-11-21T08:53:34.415Z,6.10
2022-11-21T08:56:04.141Z,6.20
2022-11-21T08:58:31.354Z,6.30
2022-11-21T09:00:59.501Z,6.30
2022-11-21T09:03:30.807Z,6.30
2022-11-21T09:05:58.687Z,6.30
2022-11-21T09:08:25.751Z,6.40
2022-11-21T09:10:52.487Z,6.50
2022-11-21T09:13:19.351Z,6.50
2022-11-21T09:16:04.627Z,6.40
2022-11-21T09:18:31.541Z,6.50
2022-11-21T09:20:59.032Z,6.60
2022-11-21T09:23:26.111Z,6.70
2022-11-21T09:25:52.962Z,6.70
2022-11-21T09:28:19.685Z,6.70
2022-11-21T09:30:46.519Z,6.80
2022-11-21T09:33:16.704Z,6.90
2022-11-21T09:35:43.744Z,6.90
2022-11-21T09:38:11.065Z,6.90
2022-11-21T09:40:44.716Z,7.00
2022-11-21T09:43:39.231Z,6.90
2022-11-21T09:46:16.360Z,7.00
2022-11-21T09:48:58.212Z,7.00
2022-11-21T09:51:26.876Z,7.00
2022-11-21T09:54:02.998Z,6.90
2022-11-21T09:56:33.364Z,6.80
2022-11-21T09:59:35.854Z,6.90
2022-11-21T10:02:03.484Z,6.80
2022-11-21T10:04:31.744Z,7.00
2022-11-21T10:07:26.564Z,6.90
2022-11-21T10:10:12.499Z,7.00
2022-11-21T10:12:57.632Z,6.90
2022-11-21T10:15:38.039Z,6.70
2022-11-21T10:18:40.188Z,6.80
2022-11-21T10:21:18.547Z,7.00
2022-11-21T10:24:04.370Z,7.10
2022-11-21T10:26:50.463Z,7.40
2022-11-21T10:29:35.319Z,7.40
2022-11-21T10:32:11.419Z,7.30
2022-11-21T10:34:38.993Z,7.30
2022-11-21T10:37:16.493Z,7.20
2022-11-21T10:39:48.760Z,7.30
2022-11-21T10:42:40.302Z,7.50
2022-11-21T10:45:19.848Z,7.70
2022-11-21T10:47:51.586Z,7.70
2022-11-21T10:50:33.812Z,8.00
2022-11-21T10:53:31.458Z,8.00
2022-11-21T10:56:00.574Z,8.00
2022-11-21T10:58:57.335Z,8.00
2022-11-21T11:01:26.039Z,8.10
2022-11-21T11:04:26.648Z,8.10
2022-11-21T11:06:52.933Z,8.10
2022-11-21T11:09:47.569Z,8.30
2022-11-21T11:12:46.219Z,8.30
2022-11-21T11:15:25.135Z,8.20
2022-11-21T11:18:09.089Z,8.20
2022-11-21T11:20:40.293Z,8.30
2022-11-21T11:23:22.450Z,8.30
2022-11-21T11:25:53.370Z,8.20
2022-11-21T11:28:20.830Z,8.30
2022-11-21T11:30:49.100Z,8.40
2022-11-21T11:33:32.272Z,8.40
2022-11-21T11:36:15.165Z,8.30
2022-11-21T11:38:47.217Z,8.20
2022-11-21T11:42:01.705Z,8.30
2022-11-21T11:45:10.937Z,8.40
2022-11-21T11:47:59.978Z,8.60
2022-11-21T11:50:36.971Z,8.70
2022-11-21T11:53:19.965Z,8.80
2022-11-21T11:56:04.910Z,8.80
2022-11-21T11:58:54.052Z,8.90
2022-11-21T12:01:43.099Z,8.80
2022-11-21T12:04:14.000Z,8.80
2022-11-21T12:10:17.085Z,8.80
2022-11-21T12:12:49.643Z,8.80
2022-11-21T12:15:48.868Z,8.90
2022-11-21T12:18:15.515Z,9.00
2022-11-21T12:20:59.042Z,8.60
2022-11-21T12:23:39.838Z,8.90
2022-11-21T12:26:30.937Z,9.00
2022-11-21T12:29:12.964Z,9.00
2022-11-21T12:32:04.361Z,8.90
2022-11-21T12:34:52.861Z,8.70
2022-11-21T12:37:19.519Z,8.60
2022-11-21T12:39:46.284Z,8.40
2022-11-21T12:42:50.053Z,8.10
2022-11-21T12:45:35.637Z,8.20
2022-11-21T12:48:44.164Z,8.30
2022-11-21T12:51:56.716Z,8.40
2022-11-21T12:54:38.716Z,8.50
2022-11-21T12:57:21.603Z,8.50
2022-11-21T12:59:52.411Z,8.50
2022-11-21T13:02:39.476Z,8.60
2022-11-21T13:05:12.360Z,8.70
2022-11-21T13:07:40.544Z,8.70
2022-11-21T13:10:14.527Z,8.80
2022-11-21T13:12:57.599Z,8.80
2022-11-21T13:15:32.800Z,8.80
2022-11-21T13:18:27.282Z,8.70
2022-11-21T13:20:54.042Z,8.70
2022-11-21T13:23:41.231Z,8.70
2022-11-21T13:26:26.142Z,8.70
2022-11-21T13:29:08.737Z,8.60
2022-11-21T13:31:36.122Z,8.40
2022-11-21T13:34:05.382Z,8.40
2022-11-21T13:36:32.094Z,8.50
2022-11-21T13:38:59.067Z,8.40
2022-11-21T13:41:55.183Z,8.30
2022-11-21T13:44:31.031Z,8.30
2022-11-21T13:47:17.202Z,8.30
2022-11-21T13:49:52.016Z,8.20
2022-11-21T13:52:38.173Z,8.10
2022-11-21T13:55:07.827Z,8.10
2022-11-21T13:58:00.068Z,8.00
2022-11-21T14:00:48.359Z,7.90
2022-11-21T14:03:32.910Z,7.90
2022-11-21T14:06:12.836Z,7.90
2022-11-21T14:08:40.570Z,7.90
2022-11-21T14:11:29.928Z,7.90
2022-11-21T14:13:56.752Z,7.90
2022-11-21T14:16:41.832Z,7.80
2022-11-21T14:19:17.692Z,7.80
2022-11-21T14:21:46.285Z,7.80
2022-11-21T14:24:17.652Z,7.70
2022-11-21T14:26:47.897Z,7.70
2022-11-21T14:29:37.995Z,7.70
2022-11-21T14:32:04.739Z,7.70
2022-11-21T14:34:35.744Z,7.50
2022-11-21T14:37:06.259Z,7.40
2022-11-21T14:39:43.485Z,7.30
2022-11-21T14:42:16.460Z,7.30
2022-11-21T14:44:43.564Z,7.20
2022-11-21T14:47:25.018Z,7.20
2022-11-21T14:49:55.125Z,7.10
2022-11-21T14:52:26.954Z,7.10
2022-11-21T14:55:28.442Z,7.00
2022-11-21T14:57:46.367Z,6.80
2022-11-21T15:00:43.235Z,6.70
2022-11-21T15:03:03.463Z,6.70
2022-11-21T15:06:00.901Z,6.80
2022-11-21T15:11:13.457Z,6.60
2022-11-21T15:14:06.541Z,6.30
2022-11-21T15:16:28.161Z,6.20
2022-11-21T15:18:55.742Z,6.20
2022-11-21T15:21:22.601Z,6.10
2022-11-21T15:23:51.390Z,6.00
2022-11-21T15:26:33.853Z,5.90
2022-11-21T15:29:01.193Z,5.90
2022-11-21T15:31:28.215Z,5.90
2022-11-21T15:37:15.010Z,5.80
2022-11-21T15:39:50.286Z,5.50
2022-11-21T15:42:36.981Z,5.40
2022-11-21T15:45:25.825Z,5.40
2022-11-21T15:47:53.037Z,5.30
2022-11-21T15:50:23.771Z,5.30
2022-11-21T15:52:52.215Z,5.30
2022-11-21T15:55:29.183Z,5.20
2022-11-21T15:57:56.011Z,5.20
2022-11-21T16:00:22.999Z,5.20
2022-11-21T16:02:49.770Z,5.20
2022-11-21T16:05:16.611Z,5.30
2022-11-21T16:07:43.381Z,5.30
2022-11-21T16:10:18.315Z,5.30
2022-11-21T16:12:48.377Z,5.30
2022-11-21T16:15:15.305Z,5.10
2022-11-21T16:17:42.255Z,5.00
2022-11-21T16:20:09.787Z,5.00
2022-11-21T16:22:36.741Z,5.10
2022-11-21T16:25:03.960Z,5.10
2022-11-21T16:27:32.701Z,5.00
2022-11-21T16:29:59.889Z,5.00
2022-11-21T16:32:27.569Z,5.10
2022-11-21T16:34:58.579Z,5.10
2022-11-21T16:37:25.303Z,5.00
2022-11-21T16:39:52.228Z,5.10
2022-11-21T16:42:20.102Z,5.10
2022-11-21T16:44:48.179Z,5.00
2022-11-21T16:47:15.571Z,5.00
2022-11-21T16:49:48.499Z,5.00
2022-11-21T16:52:16.033Z,5.00
2022-11-21T16:54:42.789Z,4.90
2022-11-21T16:57:09.590Z,4.80
2022-11-21T16:59:36.773Z,4.90
2022-11-21T17:02:03.982Z,4.90
2022-11-21T17:04:31.170Z,4.90
2022-11-21T17:06:58.625Z,5.00
2022-11-21T17:09:25.986Z,5.00
2022-11-21T17:11:53.163Z,5.10
2022-11-21T17:14:19.956Z,5.10
2022-11-21T17:16:48.772Z,5.20
2022-11-21T17:19:16.302Z,5.00
2022-11-21T17:21:43.127Z,5.00
2022-11-21T17:24:12.588Z,5.10
2022-11-21T17:26:39.370Z,5.10
2022-11-21T17:29:06.184Z,5.00
2022-11-21T17:31:33.155Z,5.00
2022-11-21T17:34:00.827Z,5.10
2022-11-21T17:36:29.426Z,5.10
2022-11-21T17:38:56.262Z,5.20
2022-11-21T17:41:24.371Z,5.20
2022-11-21T17:43:55.471Z,5.10
2022-11-21T17:46:23.715Z,5.10
2022-11-21T17:48:54.887Z,5.00
2022-11-21T17:51:25.577Z,5.10
2022-11-21T17:53:53.066Z,5.10
2022-11-21T17:56:22.404Z,5.20
2022-11-21T17:58:49.609Z,5.10
2022-11-21T18:01:20.099Z,5.10
2022-11-21T18:03:49.356Z,5.10
2022-11-21T18:06:17.384Z,5.20
2022-11-21T18:08:46.399Z,5.20
2022-11-21T18:11:19.127Z,5.30
2022-11-21T18:13:46.026Z,5.30
2022-11-21T18:16:15.712Z,5.30
2022-11-21T18:18:42.651Z,5.30
2022-11-21T18:21:11.758Z,5.30
2022-11-21T18:23:39.168Z,5.30
2022-11-21T18:26:21.525Z,5.40
2022-11-21T18:29:01.836Z,5.30
2022-11-21T18:31:37.265Z,5.30
2022-11-21T18:34:05.514Z,5.40
2022-11-21T18:36:33.442Z,5.50
2022-11-21T18:39:08.859Z,5.40
2022-11-21T18:41:39.088Z,5.40
2022-11-21T18:44:07.573Z,5.30
2022-11-21T18:46:36.467Z,5.30
2022-11-21T18:49:06.412Z,5.30
2022-11-21T18:51:34.991Z,5.30
2022-11-21T18:54:05.785Z,5.30
2022-11-21T18:56:32.610Z,5.40
2022-11-21T18:58:59.779Z,5.40
2022-11-21T19:01:31.269Z,5.40
2022-11-21T19:03:58.296Z,5.40
2022-11-21T19:06:26.325Z,5.40
2022-11-21T19:08:55.142Z,5.50
2022-11-21T19:11:24.846Z,5.50
2022-11-21T19:13:53.509Z,5.60
2022-11-21T19:16:24.331Z,5.60
2022-11-21T19:19:18.624Z,5.70
2022-11-21T19:21:39.732Z,5.60
2022-11-21T19:24:07.631Z,5.60
2022-11-21T19:26:34.475Z,5.50
2022-11-21T19:29:02.431Z,5.60
2022-11-21T19:31:29.175Z,5.50
2022-11-21T19:33:55.961Z,5.60
2022-11-21T19:36:24.036Z,5.60
2022-11-21T19:38:51.794Z,5.60
2022-11-21T19:41:21.602Z,5.60
2022-11-21T19:44:08.759Z,5.70
2022-11-21T19:46:38.788Z,5.60
2022-11-21T19:49:07.071Z,5.70
2022-11-21T19:51:36.045Z,5.70
2022-11-21T19:54:04.168Z,5.80
2022-11-21T19:56:31.228Z,5.80
2022-11-21T19:58:58.178Z,5.90
2022-11-21T20:01:27.615Z,5.80
2022-11-21T20:03:56.704Z,5.80
2022-11-21T20:06:30.645Z,5.70
2022-11-21T20:09:00.141Z,5.70
2022-11-21T20:11:28.962Z,5.70
2022-11-21T20:13:55.712Z,5.70
2022-11-21T20:16:25.303Z,5.70
2022-11-21T20:18:53.265Z,5.70
2022-11-21T20:21:20.109Z,5.70
2022-11-21T20:23:47.838Z,5.80
2022-11-21T20:26:16.718Z,5.80
2022-11-21T20:28:43.879Z,5.70
2022-11-21T20:31:19.520Z,5.50
2022-11-21T20:33:48.508Z,5.60
2022-11-21T20:36:21.354Z,5.60
2022-11-21T20:38:55.419Z,5.60
2022-11-21T20:41:27.248Z,5.40
2022-11-21T20:46:47.781Z,5.50
2022-11-21T20:49:14.524Z,5.40
2022-11-21T20:54:30.413Z,5.40
2022-11-21T20:56:57.335Z,5.30
2022-11-21T20:59:26.016Z,5.30
2022-11-21T21:01:52.882Z,5.30
2022-11-21T21:04:19.723Z,5.30
2022-11-21T21:06:46.477Z,5.40
2022-11-21T21:09:13.163Z,5.40
2022-11-21T21:11:55.159Z,5.40
2022-11-21T21:14:22.391Z,5.30
2022-11-21T21:16:49.784Z,5.30
2022-11-21T21:19:17.084Z,5.30
2022-11-21T21:21:46.106Z,5.40
2022-11-21T21:24:13.287Z,5.40
2022-11-21T21:26:43.819Z,5.40
2022-11-21T21:29:17.415Z,5.30
2022-11-21T21:31:50.493Z,5.30
2022-11-21T21:34:18.790Z,5.30
2022-11-21T21:36:45.637Z,5.30
2022-11-21T21:39:12.417Z,5.20
2022-11-21T21:41:44.484Z,5.30
2022-11-21T21:44:11.872Z,5.30
2022-11-21T21:46:38.655Z,5.20
2022-11-21T21:49:05.330Z,5.30
2022-11-21T21:51:32.268Z,5.30
2022-11-21T21:53:59.764Z,5.40
2022-11-21T21:56:28.545Z,5.30
2022-11-21T21:58:57.089Z,5.30
2022-11-21T22:01:28.067Z,5.30
2022-11-21T22:04:00.699Z,5.20
2022-11-21T22:06:27.911Z,5.30
2022-11-21T22:08:55.670Z,5.10
2022-11-21T22:11:24.696Z,5.00
2022-11-21T22:13:54.618Z,5.10
2022-11-21T22:16:21.660Z,5.10
2022-11-21T22:18:48.366Z,5.10
2022-11-21T22:21:19.696Z,5.00
2022-11-21T22:24:17.353Z,5.00
2022-11-21T22:26:33.348Z,4.80
2022-11-21T22:29:00.065Z,4.80
2022-11-21T22:31:31.295Z,4.90
2022-11-21T22:33:58.526Z,5.10
2022-11-21T22:36:25.567Z,5.00
2022-11-21T22:38:54.176Z,4.90
2022-11-21T22:41:23.531Z,4.90
2022-11-21T22:43:55.753Z,5.00
2022-11-21T22:46:23.903Z,5.20
2022-11-21T22:48:50.996Z,5.20
2022-11-21T22:51:20.766Z,5.20
2022-11-21T22:53:48.451Z,5.20
2022-11-21T22:56:17.839Z,5.20
2022-11-21T22:58:45.811Z,5.20
2022-11-21T23:01:18.009Z,5.20
2022-11-21T23:03:45.528Z,5.30
2022-11-21T23:06:16.829Z,5.30
2022-11-21T23:08:44.239Z,5.30
2022-11-21T23:11:12.299Z,5.40
2022-11-21T23:13:42.127Z,5.40
2022-11-21T23:16:10.331Z,5.40
2022-11-21T23:18:37.571Z,5.50
2022-11-21T23:21:05.316Z,5.40
2022-11-21T23:23:32.578Z,5.40
2022-11-21T23:25:59.769Z,5.40
2022-11-21T23:28:26.525Z,5.40
2022-11-21T23:30:53.371Z,5.40
2022-11-21T23:33:21.062Z,5.40
2022-11-21T23:35:48.007Z,5.50
2022-11-21T23:38:16.382Z,5.60
2022-11-21T23:40:47.581Z,5.60
2022-11-21T23:43:15.500Z,5.60
2022-11-21T23:45:42.735Z,5.70
2022-11-21T23:48:09.732Z,5.60
2022-11-21T23:50:36.479Z,5.70
2022-11-21T23:53:03.286Z,5.70
2022-11-21T23:55:29.994Z,5.50
2022-11-21T23:57:56.707Z,5.50
